sensor_id;sensor_type;location;lat;lon;timestamp;temperature;humidity
2300;DHT22;1158;48.750;9.078;2023-04-06T00:00:09;-3.00;99.90
2300;DHT22;1158;48.750;9.078;2023-04-06T00:02:37;-3.00;99.90
2300;DHT22;1158;48.750;9.078;2023-04-06T00:05:04;-3.10;99.90
2300;DHT22;1158;48.750;9.078;2023-04-06T00:07:31;-3.10;99.90
2300;DHT22;1158;48.750;9.078;2023-04-06T00:09:58;-3.10;99.90
2300;DHT22;1158;48.750;9.078;2023-04-06T00:12:26;-3.00;99.90
2300;DHT22;1158;48.750;9.078;2023-04-06T00:14:53;-3.10;99.90
2300;DHT22;1158;48.750;9.078;2023-04-06T00:17:20;-3.10;99.90
2300;DHT22;1158;48.750;9.078;2023-04-06T00:19:47;-3.10;99.90
2300;DHT22;1158;48.750;9.078;2023-04-06T00:22:13;-3.10;99.90
2300;DHT22;1158;48.750;9.078;2023-04-06T00:24:40;-3.20;99.90
2300;DHT22;1158;48.750;9.078;2023-04-06T00:27:07;-3.20;99.90
2300;DHT22;1158;48.750;9.078;2023-04-06T00:29:35;-3.10;99.90
2300;DHT22;1158;48.750;9.078;2023-04-06T00:32:02;-3.10;99.90
2300;DHT22;1158;48.750;9.078;2023-04-06T00:34:29;-3.10;99.90
2300;DHT22;1158;48.750;9.078;2023-04-06T00:36:55;-3.10;99.90
2300;DHT22;1158;48.750;9.078;2023-04-06T00:39:22;-3.20;99.90
2300;DHT22;1158;48.750;9.078;2023-04-06T00:41:51;-3.30;99.90
2300;DHT22;1158;48.750;9.078;2023-04-06T00:44:18;-3.40;99.90
2300;DHT22;1158;48.750;9.078;2023-04-06T00:46:46;-3.30;99.90
2300;DHT22;1158;48.750;9.078;2023-04-06T00:49:13;-3.30;99.90
2300;DHT22;1158;48.750;9.078;2023-04-06T00:51:40;-3.20;99.90
2300;DHT22;1158;48.750;9.078;2023-04-06T00:54:06;-3.30;99.90
2300;DHT22;1158;48.750;9.078;2023-04-06T00:56:33;-3.30;99.90
2300;DHT22;1158;48.750;9.078;2023-04-06T00:59:00;-3.30;99.90
2300;DHT22;1158;48.750;9.078;2023-04-06T01:01:27;-3.40;99.90
2300;DHT22;1158;48.750;9.078;2023-04-06T01:03:55;-3.30;99.90
2300;DHT22;1158;48.750;9.078;2023-04-06T01:06:22;-3.30;99.90
2300;DHT22;1158;48.750;9.078;2023-04-06T01:08:48;-3.30;99.90
2300;DHT22;1158;48.750;9.078;2023-04-06T01:11:16;-3.30;99.90
2300;DHT22;1158;48.750;9.078;2023-04-06T01:13:43;-3.50;99.90
2300;DHT22;1158;48.750;9.078;2023-04-06T01:16:10;-3.50;99.90
2300;DHT22;1158;48.750;9.078;2023-04-06T01:18:37;-3.50;99.90
2300;DHT22;1158;48.750;9.078;2023-04-06T01:21:05;-3.50;99.90
2300;DHT22;1158;48.750;9.078;2023-04-06T01:23:35;-3.50;99.90
2300;DHT22;1158;48.750;9.078;2023-04-06T01:26:02;-3.50;99.90
2300;DHT22;1158;48.750;9.078;2023-04-06T01:28:29;-3.50;99.90
2300;DHT22;1158;48.750;9.078;2023-04-06T01:30:55;-3.60;99.90
2300;DHT22;1158;48.750;9.078;2023-04-06T01:33:22;-3.60;99.90
2300;DHT22;1158;48.750;9.078;2023-04-06T01:35:49;-3.60;99.90
2300;DHT22;1158;48.750;9.078;2023-04-06T01:38:15;-3.60;99.90
2300;DHT22;1158;48.750;9.078;2023-04-06T01:40:43;-3.60;99.90
2300;DHT22;1158;48.750;9.078;2023-04-06T01:43:10;-3.60;99.90
2300;DHT22;1158;48.750;9.078;2023-04-06T01:45:37;-3.60;99.90
2300;DHT22;1158;48.750;9.078;2023-04-06T01:48:04;-3.60;99.90
2300;DHT22;1158;48.750;9.078;2023-04-06T01:50:31;-3.60;99.90
2300;DHT22;1158;48.750;9.078;2023-04-06T01:52:57;-3.60;99.90
2300;DHT22;1158;48.750;9.078;2023-04-06T01:58:47;-3.70;99.90
2300;DHT22;1158;48.750;9.078;2023-04-06T02:01:14;-3.80;99.90
2300;DHT22;1158;48.750;9.078;2023-04-06T02:03:40;-3.90;99.90
2300;DHT22;1158;48.750;9.078;2023-04-06T02:06:07;-4.00;99.90
2300;DHT22;1158;48.750;9.078;2023-04-06T02:08:34;-4.00;99.90
2300;DHT22;1158;48.750;9.078;2023-04-06T02:11:00;-4.00;99.90
2300;DHT22;1158;48.750;9.078;2023-04-06T02:13:27;-3.90;99.90
2300;DHT22;1158;48.750;9.078;2023-04-06T02:15:55;-4.00;99.90
2300;DHT22;1158;48.750;9.078;2023-04-06T02:18:22;-3.90;99.90
2300;DHT22;1158;48.750;9.078;2023-04-06T02:20:49;-3.90;99.90
2300;DHT22;1158;48.750;9.078;2023-04-06T02:23:16;-3.90;99.90
2300;DHT22;1158;48.750;9.078;2023-04-06T02:25:43;-4.00;99.90
2300;DHT22;1158;48.750;9.078;2023-04-06T02:28:09;-4.00;99.90
2300;DHT22;1158;48.750;9.078;2023-04-06T02:30:36;-4.00;99.90
2300;DHT22;1158;48.750;9.078;2023-04-06T02:33:04;-4.00;99.90
2300;DHT22;1158;48.750;9.078;2023-04-06T02:35:31;-4.10;99.90
2300;DHT22;1158;48.750;9.078;2023-04-06T02:37:58;-4.10;99.90
2300;DHT22;1158;48.750;9.078;2023-04-06T02:40:24;-4.10;99.90
2300;DHT22;1158;48.750;9.078;2023-04-06T02:42:51;-4.10;99.90
2300;DHT22;1158;48.750;9.078;2023-04-06T02:45:18;-4.10;99.90
2300;DHT22;1158;48.750;9.078;2023-04-06T02:47:44;-4.10;99.90
2300;DHT22;1158;48.750;9.078;2023-04-06T02:50:12;-4.10;99.90
2300;DHT22;1158;48.750;9.078;2023-04-06T02:52:39;-4.20;99.90
2300;DHT22;1158;48.750;9.078;2023-04-06T02:55:06;-4.20;99.90
2300;DHT22;1158;48.750;9.078;2023-04-06T02:57:33;-4.30;99.90
2300;DHT22;1158;48.750;9.078;2023-04-06T03:00:00;-4.20;99.90
2300;DHT22;1158;48.750;9.078;2023-04-06T03:02:27;-4.20;99.90
2300;DHT22;1158;48.750;9.078;2023-04-06T03:04:54;-4.20;99.90
2300;DHT22;1158;48.750;9.078;2023-04-06T03:07:22;-4.20;99.90
2300;DHT22;1158;48.750;9.078;2023-04-06T03:09:49;-4.20;99.90
2300;DHT22;1158;48.750;9.078;2023-04-06T03:12:15;-4.20;99.90
2300;DHT22;1158;48.750;9.078;2023-04-06T03:14:42;-4.20;99.90
2300;DHT22;1158;48.750;9.078;2023-04-06T03:17:08;-4.20;99.90
2300;DHT22;1158;48.750;9.078;2023-04-06T03:19:35;-4.20;99.90
2300;DHT22;1158;48.750;9.078;2023-04-06T03:22:02;-4.20;99.90
2300;DHT22;1158;48.750;9.078;2023-04-06T03:24:30;-4.20;99.90
2300;DHT22;1158;48.750;9.078;2023-04-06T03:26:57;-4.20;99.90
2300;DHT22;1158;48.750;9.078;2023-04-06T03:29:23;-4.20;99.90
2300;DHT22;1158;48.750;9.078;2023-04-06T03:31:50;-4.20;99.90
2300;DHT22;1158;48.750;9.078;2023-04-06T03:34:17;-4.30;99.90
2300;DHT22;1158;48.750;9.078;2023-04-06T03:36:44;-4.30;99.90
2300;DHT22;1158;48.750;9.078;2023-04-06T03:39:10;-4.30;99.90
2300;DHT22;1158;48.750;9.078;2023-04-06T03:41:38;-4.20;99.90
2300;DHT22;1158;48.750;9.078;2023-04-06T03:44:05;-4.30;99.90
2300;DHT22;1158;48.750;9.078;2023-04-06T03:46:32;-4.30;99.90
2300;DHT22;1158;48.750;9.078;2023-04-06T03:48:59;-4.40;99.90
2300;DHT22;1158;48.750;9.078;2023-04-06T03:51:25;-4.40;99.90
2300;DHT22;1158;48.750;9.078;2023-04-06T03:53:52;-4.40;99.90
2300;DHT22;1158;48.750;9.078;2023-04-06T03:56:19;-4.50;99.90
2300;DHT22;1158;48.750;9.078;2023-04-06T03:58:47;-4.40;99.90
2300;DHT22;1158;48.750;9.078;2023-04-06T04:01:16;-4.50;99.90
2300;DHT22;1158;48.750;9.078;2023-04-06T04:03:42;-4.40;99.90
2300;DHT22;1158;48.750;9.078;2023-04-06T04:06:09;-4.40;99.90
2300;DHT22;1158;48.750;9.078;2023-04-06T04:08:36;-4.40;99.90
2300;DHT22;1158;48.750;9.078;2023-04-06T04:11:03;-4.40;99.90
2300;DHT22;1158;48.750;9.078;2023-04-06T04:13:29;-4.40;99.90
2300;DHT22;1158;48.750;9.078;2023-04-06T04:15:57;-4.40;99.90
2300;DHT22;1158;48.750;9.078;2023-04-06T04:18:25;-4.40;99.90
2300;DHT22;1158;48.750;9.078;2023-04-06T04:20:51;-4.40;99.90
2300;DHT22;1158;48.750;9.078;2023-04-06T04:23:18;-4.50;99.90
2300;DHT22;1158;48.750;9.078;2023-04-06T04:25:45;-4.50;99.90
2300;DHT22;1158;48.750;9.078;2023-04-06T04:28:12;-4.50;99.90
2300;DHT22;1158;48.750;9.078;2023-04-06T04:30:38;-4.50;99.90
2300;DHT22;1158;48.750;9.078;2023-04-06T04:33:06;-4.60;99.90
2300;DHT22;1158;48.750;9.078;2023-04-06T04:35:33;-4.50;99.90
2300;DHT22;1158;48.750;9.078;2023-04-06T04:37:59;-4.50;99.90
2300;DHT22;1158;48.750;9.078;2023-04-06T04:40:26;-4.50;99.90
2300;DHT22;1158;48.750;9.078;2023-04-06T04:42:53;-4.60;99.90
2300;DHT22;1158;48.750;9.078;2023-04-06T04:45:20;-4.60;99.90
2300;DHT22;1158;48.750;9.078;2023-04-06T04:47:46;-4.60;99.90
2300;DHT22;1158;48.750;9.078;2023-04-06T04:50:15;-4.50;99.90
2300;DHT22;1158;48.750;9.078;2023-04-06T04:52:42;-4.50;99.90
2300;DHT22;1158;48.750;9.078;2023-04-06T04:55:09;-4.50;99.90
2300;DHT22;1158;48.750;9.078;2023-04-06T04:57:36;-4.50;99.90
2300;DHT22;1158;48.750;9.078;2023-04-06T05:00:03;-4.50;99.90
2300;DHT22;1158;48.750;9.078;2023-04-06T05:02:30;-4.40;99.90
2300;DHT22;1158;48.750;9.078;2023-04-06T05:04:56;-4.40;99.90
2300;DHT22;1158;48.750;9.078;2023-04-06T05:07:24;-4.30;99.90
2300;DHT22;1158;48.750;9.078;2023-04-06T05:09:51;-4.30;99.90
2300;DHT22;1158;48.750;9.078;2023-04-06T05:12:18;-4.20;99.90
2300;DHT22;1158;48.750;9.078;2023-04-06T05:14:45;-4.20;99.90
2300;DHT22;1158;48.750;9.078;2023-04-06T05:17:12;-4.20;99.90
2300;DHT22;1158;48.750;9.078;2023-04-06T05:19:39;-4.10;99.90
2300;DHT22;1158;48.750;9.078;2023-04-06T05:22:05;-4.00;99.90
2300;DHT22;1158;48.750;9.078;2023-04-06T05:24:34;-3.50;99.90
2300;DHT22;1158;48.750;9.078;2023-04-06T05:27:01;-3.00;99.90
2300;DHT22;1158;48.750;9.078;2023-04-06T05:29:28;-2.90;99.90
2300;DHT22;1158;48.750;9.078;2023-04-06T05:31:55;-2.80;99.90
2300;DHT22;1158;48.750;9.078;2023-04-06T05:34:22;-2.70;99.90
2300;DHT22;1158;48.750;9.078;2023-04-06T05:36:48;-2.40;99.90
2300;DHT22;1158;48.750;9.078;2023-04-06T05:39:15;-2.10;99.90
2300;DHT22;1158;48.750;9.078;2023-04-06T05:41:43;-1.60;99.90
2300;DHT22;1158;48.750;9.078;2023-04-06T05:44:10;-1.20;99.90
2300;DHT22;1158;48.750;9.078;2023-04-06T05:46:37;-0.60;99.90
2300;DHT22;1158;48.750;9.078;2023-04-06T05:49:04;-0.50;99.90
2300;DHT22;1158;48.750;9.078;2023-04-06T05:51:30;-0.70;99.90
2300;DHT22;1158;48.750;9.078;2023-04-06T05:53:57;-0.70;99.90
2300;DHT22;1158;48.750;9.078;2023-04-06T05:56:24;0.10;99.90
2300;DHT22;1158;48.750;9.078;2023-04-06T05:58:53;3.10;99.90
2300;DHT22;1158;48.750;9.078;2023-04-06T06:01:19;5.30;99.90
2300;DHT22;1158;48.750;9.078;2023-04-06T06:03:46;6.70;99.90
2300;DHT22;1158;48.750;9.078;2023-04-06T06:06:13;7.50;97.30
2300;DHT22;1158;48.750;9.078;2023-04-06T06:08:39;6.90;94.60
2300;DHT22;1158;48.750;9.078;2023-04-06T06:11:06;7.00;93.90
2300;DHT22;1158;48.750;9.078;2023-04-06T06:13:33;7.30;93.60
2300;DHT22;1158;48.750;9.078;2023-04-06T06:16:01;7.40;92.40
2300;DHT22;1158;48.750;9.078;2023-04-06T06:18:30;7.80;91.70
2300;DHT22;1158;48.750;9.078;2023-04-06T06:20:57;8.00;91.00
2300;DHT22;1158;48.750;9.078;2023-04-06T06:23:23;8.10;90.80
2300;DHT22;1158;48.750;9.078;2023-04-06T06:25:50;8.50;90.60
2300;DHT22;1158;48.750;9.078;2023-04-06T06:28:17;8.80;90.00
2300;DHT22;1158;48.750;9.078;2023-04-06T06:30:44;9.00;89.40
2300;DHT22;1158;48.750;9.078;2023-04-06T06:33:12;9.50;88.40
2300;DHT22;1158;48.750;9.078;2023-04-06T06:35:38;10.20;85.30
2300;DHT22;1158;48.750;9.078;2023-04-06T06:38:05;10.30;83.30
2300;DHT22;1158;48.750;9.078;2023-04-06T06:40:33;10.50;83.20
2300;DHT22;1158;48.750;9.078;2023-04-06T06:42:59;10.50;82.60
2300;DHT22;1158;48.750;9.078;2023-04-06T06:45:26;10.30;83.80
2300;DHT22;1158;48.750;9.078;2023-04-06T06:47:54;9.90;86.90
2300;DHT22;1158;48.750;9.078;2023-04-06T06:50:22;10.40;85.80
2300;DHT22;1158;48.750;9.078;2023-04-06T06:52:49;10.90;84.40
2300;DHT22;1158;48.750;9.078;2023-04-06T06:55:16;12.20;82.20
2300;DHT22;1158;48.750;9.078;2023-04-06T06:57:44;12.70;80.10
2300;DHT22;1158;48.750;9.078;2023-04-06T07:00:12;13.40;79.30
2300;DHT22;1158;48.750;9.078;2023-04-06T07:02:39;13.40;79.40
2300;DHT22;1158;48.750;9.078;2023-04-06T07:05:07;13.70;79.10
2300;DHT22;1158;48.750;9.078;2023-04-06T07:07:35;14.20;78.00
2300;DHT22;1158;48.750;9.078;2023-04-06T07:10:02;14.70;77.60
2300;DHT22;1158;48.750;9.078;2023-04-06T07:12:28;14.90;74.50
2300;DHT22;1158;48.750;9.078;2023-04-06T07:14:55;15.40;72.10
2300;DHT22;1158;48.750;9.078;2023-04-06T07:17:22;15.80;69.80
2300;DHT22;1158;48.750;9.078;2023-04-06T07:19:48;15.70;69.10
2300;DHT22;1158;48.750;9.078;2023-04-06T07:22:15;16.10;67.30
2300;DHT22;1158;48.750;9.078;2023-04-06T07:24:43;16.30;66.20
2300;DHT22;1158;48.750;9.078;2023-04-06T07:27:10;16.90;67.30
2300;DHT22;1158;48.750;9.078;2023-04-06T07:29:37;17.10;63.80
2300;DHT22;1158;48.750;9.078;2023-04-06T07:32:04;17.20;63.90
2300;DHT22;1158;48.750;9.078;2023-04-06T07:34:31;17.50;61.20
2300;DHT22;1158;48.750;9.078;2023-04-06T07:36:57;17.00;59.30
2300;DHT22;1158;48.750;9.078;2023-04-06T07:39:26;16.30;59.50
2300;DHT22;1158;48.750;9.078;2023-04-06T07:41:54;16.20;60.90
2300;DHT22;1158;48.750;9.078;2023-04-06T07:44:21;16.20;59.70
2300;DHT22;1158;48.750;9.078;2023-04-06T07:46:48;16.30;60.20
2300;DHT22;1158;48.750;9.078;2023-04-06T07:49:15;16.80;59.70
2300;DHT22;1158;48.750;9.078;2023-04-06T07:51:41;16.90;59.30
2300;DHT22;1158;48.750;9.078;2023-04-06T07:54:08;17.10;58.60
2300;DHT22;1158;48.750;9.078;2023-04-06T07:56:35;17.90;57.30
2300;DHT22;1158;48.750;9.078;2023-04-06T07:59:03;18.10;57.20
2300;DHT22;1158;48.750;9.078;2023-04-06T08:01:29;18.30;56.70
2300;DHT22;1158;48.750;9.078;2023-04-06T08:03:56;18.90;55.90
2300;DHT22;1158;48.750;9.078;2023-04-06T08:06:23;18.90;54.50
2300;DHT22;1158;48.750;9.078;2023-04-06T08:08:52;17.80;55.00
2300;DHT22;1158;48.750;9.078;2023-04-06T08:11:19;18.10;54.40
2300;DHT22;1158;48.750;9.078;2023-04-06T08:13:47;17.70;54.10
2300;DHT22;1158;48.750;9.078;2023-04-06T08:16:15;18.10;56.00
2300;DHT22;1158;48.750;9.078;2023-04-06T08:18:41;19.50;55.30
2300;DHT22;1158;48.750;9.078;2023-04-06T08:21:08;20.30;51.30
2300;DHT22;1158;48.750;9.078;2023-04-06T08:23:35;18.10;51.20
2300;DHT22;1158;48.750;9.078;2023-04-06T08:26:02;18.00;53.20
2300;DHT22;1158;48.750;9.078;2023-04-06T08:28:28;18.20;53.80
2300;DHT22;1158;48.750;9.078;2023-04-06T08:30:55;19.30;53.10
2300;DHT22;1158;48.750;9.078;2023-04-06T08:33:23;19.90;52.40
2300;DHT22;1158;48.750;9.078;2023-04-06T08:35:50;19.70;52.40
2300;DHT22;1158;48.750;9.078;2023-04-06T08:38:17;19.60;51.90
2300;DHT22;1158;48.750;9.078;2023-04-06T08:40:43;19.80;52.70
2300;DHT22;1158;48.750;9.078;2023-04-06T08:43:14;19.40;52.30
2300;DHT22;1158;48.750;9.078;2023-04-06T08:45:41;20.20;53.10
2300;DHT22;1158;48.750;9.078;2023-04-06T08:48:09;19.20;50.60
2300;DHT22;1158;48.750;9.078;2023-04-06T08:50:39;18.90;53.00
2300;DHT22;1158;48.750;9.078;2023-04-06T08:53:06;19.20;52.00
2300;DHT22;1158;48.750;9.078;2023-04-06T08:55:34;19.00;52.40
2300;DHT22;1158;48.750;9.078;2023-04-06T08:58:01;19.70;52.20
2300;DHT22;1158;48.750;9.078;2023-04-06T09:00:29;20.20;49.10
2300;DHT22;1158;48.750;9.078;2023-04-06T09:02:57;20.20;49.90
2300;DHT22;1158;48.750;9.078;2023-04-06T09:05:25;20.20;49.60
2300;DHT22;1158;48.750;9.078;2023-04-06T09:07:53;20.60;49.20
2300;DHT22;1158;48.750;9.078;2023-04-06T09:10:21;20.60;50.60
2300;DHT22;1158;48.750;9.078;2023-04-06T09:12:49;20.20;50.30
2300;DHT22;1158;48.750;9.078;2023-04-06T09:15:19;19.80;50.40
2300;DHT22;1158;48.750;9.078;2023-04-06T09:17:46;19.00;52.70
2300;DHT22;1158;48.750;9.078;2023-04-06T09:20:13;18.70;52.40
2300;DHT22;1158;48.750;9.078;2023-04-06T09:22:42;18.10;52.70
2300;DHT22;1158;48.750;9.078;2023-04-06T09:25:18;17.60;52.40
2300;DHT22;1158;48.750;9.078;2023-04-06T09:27:46;18.10;52.30
2300;DHT22;1158;48.750;9.078;2023-04-06T09:30:13;17.40;51.40
2300;DHT22;1158;48.750;9.078;2023-04-06T09:32:46;18.20;52.00
2300;DHT22;1158;48.750;9.078;2023-04-06T09:35:13;18.70;51.60
2300;DHT22;1158;48.750;9.078;2023-04-06T09:37:41;18.60;51.90
2300;DHT22;1158;48.750;9.078;2023-04-06T09:40:10;18.80;51.20
2300;DHT22;1158;48.750;9.078;2023-04-06T09:42:37;18.70;51.20
2300;DHT22;1158;48.750;9.078;2023-04-06T09:45:04;18.40;51.40
2300;DHT22;1158;48.750;9.078;2023-04-06T09:47:32;19.10;50.70
2300;DHT22;1158;48.750;9.078;2023-04-06T09:50:00;18.90;50.00
2300;DHT22;1158;48.750;9.078;2023-04-06T09:52:30;19.10;49.30
2300;DHT22;1158;48.750;9.078;2023-04-06T09:55:01;18.50;52.00
2300;DHT22;1158;48.750;9.078;2023-04-06T09:57:32;18.90;49.90
2300;DHT22;1158;48.750;9.078;2023-04-06T10:00:04;18.80;51.40
2300;DHT22;1158;48.750;9.078;2023-04-06T10:02:41;19.10;51.90
2300;DHT22;1158;48.750;9.078;2023-04-06T10:05:17;19.80;49.00
2300;DHT22;1158;48.750;9.078;2023-04-06T10:07:47;20.00;49.30
2300;DHT22;1158;48.750;9.078;2023-04-06T10:10:16;19.30;48.40
2300;DHT22;1158;48.750;9.078;2023-04-06T10:12:45;19.50;49.20
2300;DHT22;1158;48.750;9.078;2023-04-06T10:15:12;18.70;51.00
2300;DHT22;1158;48.750;9.078;2023-04-06T10:17:39;18.10;49.60
2300;DHT22;1158;48.750;9.078;2023-04-06T10:20:10;17.70;51.70
2300;DHT22;1158;48.750;9.078;2023-04-06T10:22:43;18.20;51.40
2300;DHT22;1158;48.750;9.078;2023-04-06T10:25:16;18.50;50.70
2300;DHT22;1158;48.750;9.078;2023-04-06T10:27:44;15.90;51.20
2300;DHT22;1158;48.750;9.078;2023-04-06T10:30:11;16.80;54.10
2300;DHT22;1158;48.750;9.078;2023-04-06T10:32:42;17.80;52.10
2300;DHT22;1158;48.750;9.078;2023-04-06T10:35:09;17.50;50.90
2300;DHT22;1158;48.750;9.078;2023-04-06T10:37:50;18.30;50.80
2300;DHT22;1158;48.750;9.078;2023-04-06T10:40:19;18.30;51.70
2300;DHT22;1158;48.750;9.078;2023-04-06T10:42:47;18.00;52.10
2300;DHT22;1158;48.750;9.078;2023-04-06T10:45:21;18.40;52.00
2300;DHT22;1158;48.750;9.078;2023-04-06T10:47:48;18.40;50.60
2300;DHT22;1158;48.750;9.078;2023-04-06T10:50:15;17.80;50.40
2300;DHT22;1158;48.750;9.078;2023-04-06T10:52:44;18.30;51.00
2300;DHT22;1158;48.750;9.078;2023-04-06T10:55:12;17.90;51.50
2300;DHT22;1158;48.750;9.078;2023-04-06T10:57:39;17.30;52.10
2300;DHT22;1158;48.750;9.078;2023-04-06T11:00:08;17.70;52.10
2300;DHT22;1158;48.750;9.078;2023-04-06T11:02:36;16.70;51.00
2300;DHT22;1158;48.750;9.078;2023-04-06T11:05:03;16.10;52.90
2300;DHT22;1158;48.750;9.078;2023-04-06T11:07:30;16.90;53.30
2300;DHT22;1158;48.750;9.078;2023-04-06T11:09:57;17.70;51.30
2300;DHT22;1158;48.750;9.078;2023-04-06T11:12:24;16.70;50.40
2300;DHT22;1158;48.750;9.078;2023-04-06T11:14:55;17.20;51.10
2300;DHT22;1158;48.750;9.078;2023-04-06T11:17:28;17.20;50.30
2300;DHT22;1158;48.750;9.078;2023-04-06T11:19:55;18.00;55.90
2300;DHT22;1158;48.750;9.078;2023-04-06T11:22:22;16.90;54.10
2300;DHT22;1158;48.750;9.078;2023-04-06T11:24:49;17.00;51.20
2300;DHT22;1158;48.750;9.078;2023-04-06T11:27:16;16.70;52.20
2300;DHT22;1158;48.750;9.078;2023-04-06T11:29:43;16.30;52.50
2300;DHT22;1158;48.750;9.078;2023-04-06T11:32:11;15.80;52.30
2300;DHT22;1158;48.750;9.078;2023-04-06T11:34:48;15.50;52.70
2300;DHT22;1158;48.750;9.078;2023-04-06T11:37:14;15.20;53.10
2300;DHT22;1158;48.750;9.078;2023-04-06T11:39:46;14.90;55.00
2300;DHT22;1158;48.750;9.078;2023-04-06T11:42:20;14.90;54.40
2300;DHT22;1158;48.750;9.078;2023-04-06T11:44:49;15.90;53.30
2300;DHT22;1158;48.750;9.078;2023-04-06T11:47:16;16.60;54.20
2300;DHT22;1158;48.750;9.078;2023-04-06T11:49:44;17.00;53.60
2300;DHT22;1158;48.750;9.078;2023-04-06T11:52:17;17.10;51.00
2300;DHT22;1158;48.750;9.078;2023-04-06T11:54:44;16.60;51.00
2300;DHT22;1158;48.750;9.078;2023-04-06T11:57:11;16.40;52.40
2300;DHT22;1158;48.750;9.078;2023-04-06T11:59:37;16.10;52.20
2300;DHT22;1158;48.750;9.078;2023-04-06T12:02:04;16.20;52.60
2300;DHT22;1158;48.750;9.078;2023-04-06T12:04:31;16.20;52.20
2300;DHT22;1158;48.750;9.078;2023-04-06T12:06:58;15.90;52.10
2300;DHT22;1158;48.750;9.078;2023-04-06T12:09:26;15.20;53.30
2300;DHT22;1158;48.750;9.078;2023-04-06T12:11:53;15.10;52.60
2300;DHT22;1158;48.750;9.078;2023-04-06T12:14:21;14.20;52.90
2300;DHT22;1158;48.750;9.078;2023-04-06T12:16:48;14.60;54.20
2300;DHT22;1158;48.750;9.078;2023-04-06T12:19:14;15.50;53.50
2300;DHT22;1158;48.750;9.078;2023-04-06T12:21:41;16.80;52.20
2300;DHT22;1158;48.750;9.078;2023-04-06T12:24:08;16.70;53.30
2300;DHT22;1158;48.750;9.078;2023-04-06T12:26:36;17.20;53.40
2300;DHT22;1158;48.750;9.078;2023-04-06T12:29:03;18.10;52.10
2300;DHT22;1158;48.750;9.078;2023-04-06T12:31:33;19.10;51.20
2300;DHT22;1158;48.750;9.078;2023-04-06T12:34:00;19.50;49.90
2300;DHT22;1158;48.750;9.078;2023-04-06T12:36:28;19.30;49.90
2300;DHT22;1158;48.750;9.078;2023-04-06T12:38:55;18.70;51.00
2300;DHT22;1158;48.750;9.078;2023-04-06T12:41:22;18.90;51.70
2300;DHT22;1158;48.750;9.078;2023-04-06T12:43:50;18.60;53.60
2300;DHT22;1158;48.750;9.078;2023-04-06T12:46:17;17.70;50.40
2300;DHT22;1158;48.750;9.078;2023-04-06T12:48:43;17.20;51.00
2300;DHT22;1158;48.750;9.078;2023-04-06T12:51:10;17.30;51.50
2300;DHT22;1158;48.750;9.078;2023-04-06T12:53:37;17.50;51.50
2300;DHT22;1158;48.750;9.078;2023-04-06T12:56:11;17.30;51.60
2300;DHT22;1158;48.750;9.078;2023-04-06T12:58:38;17.00;51.00
2300;DHT22;1158;48.750;9.078;2023-04-06T13:01:08;17.10;52.10
2300;DHT22;1158;48.750;9.078;2023-04-06T13:03:36;17.30;51.70
2300;DHT22;1158;48.750;9.078;2023-04-06T13:06:03;17.40;51.80
2300;DHT22;1158;48.750;9.078;2023-04-06T13:08:29;17.60;53.10
2300;DHT22;1158;48.750;9.078;2023-04-06T13:10:56;18.40;51.20
2300;DHT22;1158;48.750;9.078;2023-04-06T13:13:24;18.50;53.00
2300;DHT22;1158;48.750;9.078;2023-04-06T13:15:51;19.10;49.00
2300;DHT22;1158;48.750;9.078;2023-04-06T13:18:19;19.80;49.10
2300;DHT22;1158;48.750;9.078;2023-04-06T13:20:47;18.30;48.60
2300;DHT22;1158;48.750;9.078;2023-04-06T13:23:13;18.50;49.50
2300;DHT22;1158;48.750;9.078;2023-04-06T13:25:40;19.20;48.20
2300;DHT22;1158;48.750;9.078;2023-04-06T13:28:07;20.50;48.40
2300;DHT22;1158;48.750;9.078;2023-04-06T13:30:35;20.20;47.90
2300;DHT22;1158;48.750;9.078;2023-04-06T13:33:02;20.00;48.90
2300;DHT22;1158;48.750;9.078;2023-04-06T13:35:31;19.70;47.20
2300;DHT22;1158;48.750;9.078;2023-04-06T13:37:58;19.20;49.40
2300;DHT22;1158;48.750;9.078;2023-04-06T13:40:25;18.60;48.40
2300;DHT22;1158;48.750;9.078;2023-04-06T13:42:51;18.00;48.30
2300;DHT22;1158;48.750;9.078;2023-04-06T13:45:18;16.70;49.10
2300;DHT22;1158;48.750;9.078;2023-04-06T13:47:45;16.50;50.00
2300;DHT22;1158;48.750;9.078;2023-04-06T13:50:11;16.70;56.30
2300;DHT22;1158;48.750;9.078;2023-04-06T13:52:39;17.20;53.90
2300;DHT22;1158;48.750;9.078;2023-04-06T13:55:07;17.50;52.40
2300;DHT22;1158;48.750;9.078;2023-04-06T13:57:34;17.90;51.90
2300;DHT22;1158;48.750;9.078;2023-04-06T14:00:01;18.30;49.90
2300;DHT22;1158;48.750;9.078;2023-04-06T14:02:28;19.20;50.30
2300;DHT22;1158;48.750;9.078;2023-04-06T14:04:55;19.20;48.20
2300;DHT22;1158;48.750;9.078;2023-04-06T14:07:23;19.80;47.20
2300;DHT22;1158;48.750;9.078;2023-04-06T14:09:51;20.60;47.00
2300;DHT22;1158;48.750;9.078;2023-04-06T14:12:18;20.90;46.10
2300;DHT22;1158;48.750;9.078;2023-04-06T14:14:45;20.70;48.10
2300;DHT22;1158;48.750;9.078;2023-04-06T14:17:11;20.50;46.10
2300;DHT22;1158;48.750;9.078;2023-04-06T14:19:38;21.10;49.00
2300;DHT22;1158;48.750;9.078;2023-04-06T14:22:05;22.00;46.20
2300;DHT22;1158;48.750;9.078;2023-04-06T14:24:32;22.00;45.40
2300;DHT22;1158;48.750;9.078;2023-04-06T14:27:00;21.50;47.00
2300;DHT22;1158;48.750;9.078;2023-04-06T14:29:27;21.40;47.30
2300;DHT22;1158;48.750;9.078;2023-04-06T14:31:54;19.70;46.40
2300;DHT22;1158;48.750;9.078;2023-04-06T14:34:25;19.20;46.90
2300;DHT22;1158;48.750;9.078;2023-04-06T14:36:51;18.80;47.50
2300;DHT22;1158;48.750;9.078;2023-04-06T14:39:18;18.60;47.10
2300;DHT22;1158;48.750;9.078;2023-04-06T14:41:45;19.00;48.80
2300;DHT22;1158;48.750;9.078;2023-04-06T14:44:14;19.10;47.80
2300;DHT22;1158;48.750;9.078;2023-04-06T14:46:41;18.40;48.80
2300;DHT22;1158;48.750;9.078;2023-04-06T14:49:08;16.90;50.10
2300;DHT22;1158;48.750;9.078;2023-04-06T14:51:35;17.00;50.90
2300;DHT22;1158;48.750;9.078;2023-04-06T14:54:02;16.50;51.20
2300;DHT22;1158;48.750;9.078;2023-04-06T14:56:29;16.10;50.90
2300;DHT22;1158;48.750;9.078;2023-04-06T14:59:01;15.70;51.90
2300;DHT22;1158;48.750;9.078;2023-04-06T15:01:35;15.50;52.60
2300;DHT22;1158;48.750;9.078;2023-04-06T15:04:06;15.90;51.90
2300;DHT22;1158;48.750;9.078;2023-04-06T15:06:33;15.60;52.30
2300;DHT22;1158;48.750;9.078;2023-04-06T15:09:00;15.10;52.50
2300;DHT22;1158;48.750;9.078;2023-04-06T15:11:37;14.90;53.00
2300;DHT22;1158;48.750;9.078;2023-04-06T15:14:07;14.80;53.50
2300;DHT22;1158;48.750;9.078;2023-04-06T15:16:35;14.40;57.60
2300;DHT22;1158;48.750;9.078;2023-04-06T15:19:02;14.60;54.70
2300;DHT22;1158;48.750;9.078;2023-04-06T15:21:28;14.70;54.00
2300;DHT22;1158;48.750;9.078;2023-04-06T15:23:55;14.60;54.20
2300;DHT22;1158;48.750;9.078;2023-04-06T15:26:27;14.50;54.10
2300;DHT22;1158;48.750;9.078;2023-04-06T15:28:54;14.20;55.00
2300;DHT22;1158;48.750;9.078;2023-04-06T15:31:21;13.90;57.10
2300;DHT22;1158;48.750;9.078;2023-04-06T15:33:49;14.10;55.40
2300;DHT22;1158;48.750;9.078;2023-04-06T15:36:23;13.70;55.70
2300;DHT22;1158;48.750;9.078;2023-04-06T15:38:51;13.80;56.70
2300;DHT22;1158;48.750;9.078;2023-04-06T15:41:18;13.70;56.60
2300;DHT22;1158;48.750;9.078;2023-04-06T15:43:45;13.80;56.40
2300;DHT22;1158;48.750;9.078;2023-04-06T15:46:12;13.60;56.20
2300;DHT22;1158;48.750;9.078;2023-04-06T15:48:39;13.50;58.40
2300;DHT22;1158;48.750;9.078;2023-04-06T15:51:08;13.50;58.90
2300;DHT22;1158;48.750;9.078;2023-04-06T15:53:35;13.50;58.40
2300;DHT22;1158;48.750;9.078;2023-04-06T15:56:03;13.50;58.40
2300;DHT22;1158;48.750;9.078;2023-04-06T15:58:32;13.30;57.60
2300;DHT22;1158;48.750;9.078;2023-04-06T16:00:59;13.20;58.60
2300;DHT22;1158;48.750;9.078;2023-04-06T16:03:26;13.20;59.00
2300;DHT22;1158;48.750;9.078;2023-04-06T16:05:53;13.10;59.40